createdAt,value
2023-08-11T00:00:41.413Z,3.33
2023-08-11T00:03:44.834Z,3.40
2023-08-11T00:06:49.377Z,2.33
2023-08-11T00:09:52.203Z,4.07
2023-08-11T00:12:54.872Z,2.45
2023-08-11T00:15:57.859Z,3.00
2023-08-11T00:19:00.506Z,3.28
2023-08-11T00:22:03.666Z,3.75
2023-08-11T00:25:06.856Z,5.60
2023-08-11T00:28:09.749Z,3.37
2023-08-11T00:31:12.708Z,9.27
2023-08-11T00:34:15.624Z,5.05
2023-08-11T00:37:18.318Z,3.72
2023-08-11T00:40:21.225Z,6.00
2023-08-11T00:43:23.897Z,6.03
2023-08-11T00:46:26.809Z,3.90
2023-08-11T00:49:29.514Z,5.07
2023-08-11T00:52:32.641Z,3.65
2023-08-11T00:55:35.418Z,3.60
2023-08-11T00:58:38.977Z,4.22
2023-08-11T01:01:41.597Z,4.07
2023-08-11T01:04:44.502Z,3.25
2023-08-11T01:08:16.668Z,3.42
2023-08-11T01:11:50.375Z,6.53
2023-08-11T01:15:01.906Z,2.45
2023-08-11T01:18:07.350Z,6.43
2023-08-11T01:21:14.789Z,4.22
2023-08-11T01:24:18.559Z,4.80
2023-08-11T01:27:21.265Z,3.87
2023-08-11T01:30:25.616Z,3.50
2023-08-11T01:33:28.269Z,5.75
2023-08-11T01:36:31.386Z,6.07
2023-08-11T01:39:34.364Z,3.42
2023-08-11T01:42:53.680Z,4.35
2023-08-11T01:45:58.115Z,4.75
2023-08-11T01:49:01.623Z,4.37
2023-08-11T01:52:05.310Z,4.65
2023-08-11T01:55:10.805Z,6.03
2023-08-11T01:58:13.683Z,4.50
2023-08-11T02:01:16.561Z,5.40
2023-08-11T02:04:19.509Z,4.57
2023-08-11T02:07:22.124Z,5.53
2023-08-11T02:10:25.268Z,3.28
2023-08-11T02:13:27.798Z,5.37
2023-08-11T02:16:37.544Z,4.78
2023-08-11T02:19:40.263Z,5.78
2023-08-11T02:22:43.120Z,6.87
2023-08-11T02:25:47.285Z,6.32
2023-08-11T02:28:50.464Z,5.53
2023-08-11T02:31:53.504Z,3.00
2023-08-11T02:34:57.279Z,4.15
2023-08-11T02:37:59.805Z,3.33
2023-08-11T02:41:03.260Z,5.60
2023-08-11T02:44:06.193Z,4.78
2023-08-11T02:47:09.353Z,6.22
2023-08-11T02:50:12.378Z,4.53
2023-08-11T02:53:15.508Z,4.12
2023-08-11T02:56:18.067Z,3.60
2023-08-11T02:59:20.962Z,3.92
2023-08-11T03:02:23.630Z,4.03
2023-08-11T03:05:26.461Z,10.05
2023-08-11T03:08:29.220Z,4.53
2023-08-11T03:11:32.196Z,4.65
2023-08-11T03:14:40.471Z,4.07
2023-08-11T03:17:43.555Z,4.12
2023-08-11T03:20:47.114Z,4.15
2023-08-11T03:23:50.550Z,7.43
2023-08-11T03:26:54.600Z,5.03
2023-08-11T03:29:58.004Z,5.80
2023-08-11T03:33:00.788Z,4.40
2023-08-11T03:36:05.025Z,4.43
2023-08-11T03:39:07.899Z,3.97
2023-08-11T03:42:13.648Z,5.85
2023-08-11T03:45:17.012Z,5.78
2023-08-11T03:48:20.692Z,4.28
2023-08-11T03:51:23.472Z,5.47
2023-08-11T03:54:39.255Z,5.22
2023-08-11T03:57:49.700Z,8.90
2023-08-11T04:00:53.287Z,3.20
2023-08-11T04:03:56.339Z,4.80
2023-08-11T04:06:58.934Z,6.97
2023-08-11T04:10:06.563Z,6.62
2023-08-11T04:13:09.345Z,6.97
2023-08-11T04:16:12.216Z,4.57
2023-08-11T04:19:15.188Z,5.68
2023-08-11T04:22:29.057Z,5.68
2023-08-11T04:25:40.376Z,6.28
2023-08-11T04:28:44.790Z,3.65
2023-08-11T04:31:49.212Z,6.62
2023-08-11T04:34:52.611Z,8.00
2023-08-11T04:37:55.634Z,5.65
2023-08-11T04:40:59.701Z,6.18
2023-08-11T04:44:02.693Z,7.32
2023-08-11T04:47:05.834Z,8.30
2023-08-11T04:50:09.405Z,5.18
2023-08-11T04:53:13.090Z,6.50
2023-08-11T04:56:15.679Z,5.72
2023-08-11T04:59:21.767Z,6.10
2023-08-11T05:02:24.341Z,8.02
2023-08-11T05:05:27.661Z,5.60
2023-08-11T05:08:30.233Z,6.12
2023-08-11T05:11:33.151Z,8.00
2023-08-11T05:14:35.702Z,6.32
2023-08-11T05:17:38.674Z,4.30
2023-08-11T05:20:41.307Z,4.15
2023-08-11T05:23:44.461Z,5.32
2023-08-11T05:26:47.044Z,4.97
2023-08-11T05:29:50.852Z,6.07
2023-08-11T05:32:53.516Z,6.05
2023-08-11T05:35:56.542Z,5.47
2023-08-11T05:38:59.170Z,8.65
2023-08-11T05:42:01.993Z,9.55
2023-08-11T05:45:05.241Z,6.75
2023-08-11T05:48:08.287Z,7.95
2023-08-11T05:51:10.848Z,7.72
2023-08-11T05:54:13.748Z,5.70
2023-08-11T05:57:16.352Z,8.75
2023-08-11T06:00:20.390Z,7.47
2023-08-11T06:03:23.583Z,7.87
2023-08-11T06:06:27.714Z,6.05
2023-08-11T06:09:30.781Z,7.43
2023-08-11T06:12:33.677Z,5.68
2023-08-11T06:15:36.601Z,6.05
2023-08-11T06:18:39.377Z,5.30
2023-08-11T06:21:42.169Z,5.25
2023-08-11T06:24:44.753Z,3.83
2023-08-11T06:27:47.749Z,5.93
2023-08-11T06:30:50.517Z,4.90
2023-08-11T06:33:53.304Z,4.75
2023-08-11T06:36:55.912Z,4.25
2023-08-11T06:39:59.660Z,6.85
2023-08-11T06:43:02.273Z,12.05
2023-08-11T06:46:05.416Z,4.72
2023-08-11T06:49:08.176Z,6.87
2023-08-11T06:52:11.151Z,4.53
2023-08-11T06:55:13.814Z,4.93
2023-08-11T06:58:16.705Z,5.85
2023-08-11T07:01:19.638Z,3.95
2023-08-11T07:04:22.659Z,3.03
2023-08-11T07:07:25.197Z,4.43
2023-08-11T07:10:28.813Z,5.22
2023-08-11T07:13:31.460Z,8.45
2023-08-11T07:16:34.410Z,4.12
2023-08-11T07:19:37.668Z,5.10
2023-08-11T07:22:40.582Z,5.20
2023-08-11T07:25:44.042Z,3.10
2023-08-11T07:28:47.676Z,2.83
2023-08-11T07:31:50.294Z,4.03
2023-08-11T07:34:53.108Z,6.05
2023-08-11T07:37:55.862Z,4.28
2023-08-11T07:40:58.777Z,4.80
2023-08-11T07:44:01.458Z,4.72
2023-08-11T07:47:04.463Z,8.73
2023-08-11T07:50:08.215Z,3.30
2023-08-11T07:53:11.231Z,4.90
2023-08-11T07:56:13.948Z,4.97
2023-08-11T07:59:17.290Z,3.87
2023-08-11T08:02:20.230Z,3.12
2023-08-11T08:05:23.584Z,4.10
2023-08-11T08:08:26.154Z,6.12
2023-08-11T08:11:29.357Z,3.08
2023-08-11T08:14:32.316Z,4.35
2023-08-11T08:17:35.652Z,4.65
2023-08-11T08:20:38.277Z,5.75
2023-08-11T08:23:42.359Z,5.10
2023-08-11T08:26:45.704Z,5.62
2023-08-11T08:29:48.586Z,4.40
2023-08-11T08:32:51.143Z,9.48
2023-08-11T08:35:53.970Z,2.47
2023-08-11T08:38:56.626Z,4.95
2023-08-11T08:42:00.433Z,6.65
2023-08-11T08:45:04.658Z,8.13
2023-08-11T08:48:14.473Z,3.80
2023-08-11T08:51:17.157Z,5.28
2023-08-11T08:54:20.591Z,2.92
2023-08-11T08:57:26.834Z,4.72
2023-08-11T09:00:34.246Z,6.97
2023-08-11T09:03:38.736Z,3.55
2023-08-11T09:06:42.968Z,8.25
2023-08-11T09:09:45.647Z,5.75
2023-08-11T09:12:49.709Z,3.60
2023-08-11T09:15:52.494Z,3.08
2023-08-11T09:18:55.447Z,14.15
2023-08-11T09:21:58.207Z,2.40
2023-08-11T09:25:01.093Z,4.30
2023-08-11T09:28:04.112Z,4.12
2023-08-11T09:31:07.879Z,3.35
2023-08-11T09:34:16.169Z,3.42
2023-08-11T09:37:19.221Z,3.80
2023-08-11T09:40:24.743Z,5.25
2023-08-11T09:43:28.722Z,3.47
2023-08-11T09:49:35.317Z,3.00
2023-08-11T09:52:40.255Z,5.05
2023-08-11T09:55:44.239Z,4.97
2023-08-11T09:58:49.184Z,3.00
2023-08-11T10:01:54.923Z,2.83
2023-08-11T10:05:03.902Z,3.78
2023-08-11T10:11:12.471Z,4.45
2023-08-11T10:14:19.546Z,4.60
2023-08-11T10:17:23.706Z,2.72
2023-08-11T10:20:27.125Z,3.20
2023-08-11T10:23:31.079Z,4.45
2023-08-11T10:26:34.804Z,2.80
2023-08-11T10:29:39.604Z,2.33
2023-08-11T10:32:42.354Z,3.10
2023-08-11T10:35:47.935Z,2.10
2023-08-11T10:39:02.296Z,1.67
2023-08-11T10:42:05.370Z,1.58
2023-08-11T10:45:10.772Z,4.12
2023-08-11T10:48:13.629Z,2.75
2023-08-11T10:51:38.049Z,2.47
2023-08-11T10:54:50.960Z,1.90
2023-08-11T10:58:15.148Z,2.50
2023-08-11T11:01:19.769Z,2.78
2023-08-11T11:04:24.638Z,2.28
2023-08-11T11:07:29.059Z,1.80
2023-08-11T11:10:43.739Z,2.58
2023-08-11T11:13:51.864Z,2.25
2023-08-11T11:16:56.319Z,2.55
2023-08-11T11:20:02.964Z,5.20
2023-08-11T11:23:06.913Z,3.75
2023-08-11T11:26:10.005Z,2.10
2023-08-11T11:29:13.150Z,2.45
2023-08-11T11:32:18.238Z,3.85
2023-08-11T11:35:21.027Z,3.75
2023-08-11T11:38:24.022Z,3.67
2023-08-11T11:41:26.545Z,1.30
2023-08-11T11:44:32.115Z,2.45
2023-08-11T11:47:35.119Z,2.15
2023-08-11T11:50:38.133Z,5.22
2023-08-11T11:53:43.049Z,1.42
2023-08-11T11:56:58.208Z,1.60
2023-08-11T12:00:17.330Z,2.55
2023-08-11T12:03:22.149Z,2.17
2023-08-11T12:06:28.332Z,3.12
2023-08-11T12:09:31.124Z,2.35
2023-08-11T12:12:34.249Z,4.80
2023-08-11T12:15:37.457Z,2.65
2023-08-11T12:18:41.099Z,2.58
2023-08-11T12:21:43.863Z,4.20
2023-08-11T12:24:46.751Z,3.03
2023-08-11T12:27:49.534Z,1.10
2023-08-11T12:30:52.494Z,4.05
2023-08-11T12:33:55.454Z,2.42
2023-08-11T12:36:59.900Z,7.18
2023-08-11T12:40:02.857Z,6.78
2023-08-11T12:43:06.063Z,3.00
2023-08-11T12:46:10.058Z,2.67
2023-08-11T12:49:14.404Z,1.58
2023-08-11T12:52:17.305Z,2.33
2023-08-11T12:55:20.354Z,3.30
2023-08-11T12:58:23.179Z,5.28
2023-08-11T13:01:27.758Z,3.15
2023-08-11T13:04:30.370Z,6.55
2023-08-11T13:07:33.545Z,15.13
2023-08-11T13:10:36.916Z,1.52
2023-08-11T13:13:39.818Z,3.05
2023-08-11T13:16:42.456Z,5.15
2023-08-11T13:19:45.409Z,4.65
2023-08-11T13:22:47.961Z,3.00
2023-08-11T13:25:51.291Z,5.97
2023-08-11T13:28:58.438Z,2.70
2023-08-11T13:32:01.705Z,2.20
2023-08-11T13:35:06.273Z,2.05
2023-08-11T13:38:09.406Z,8.38
2023-08-11T13:41:12.016Z,1.55
2023-08-11T13:44:15.205Z,4.35
2023-08-11T13:47:18.225Z,5.90
2023-08-11T13:50:22.375Z,2.45
2023-08-11T13:53:25.188Z,1.62
2023-08-11T13:56:28.062Z,3.45
2023-08-11T13:59:31.026Z,2.28
2023-08-11T14:02:33.943Z,4.93
2023-08-11T14:05:36.877Z,2.45
2023-08-11T14:08:40.365Z,1.83
2023-08-11T14:11:43.684Z,2.10
2023-08-11T14:14:46.204Z,2.97
2023-08-11T14:17:49.049Z,2.58
2023-08-11T14:20:52.507Z,3.85
2023-08-11T14:23:55.981Z,1.35
2023-08-11T14:26:58.518Z,2.37
2023-08-11T14:30:01.355Z,2.03
2023-08-11T14:33:04.224Z,3.30
2023-08-11T14:36:12.773Z,3.35
2023-08-11T14:42:18.732Z,2.75
2023-08-11T14:45:21.306Z,2.65
2023-08-11T14:48:26.291Z,1.87
2023-08-11T14:51:30.728Z,4.35
2023-08-11T14:54:33.623Z,3.50
2023-08-11T14:57:36.153Z,3.30
2023-08-11T15:00:39.190Z,2.22
2023-08-11T15:03:42.779Z,3.22
2023-08-11T15:06:45.793Z,1.87
2023-08-11T15:09:48.406Z,3.47
2023-08-11T15:12:51.235Z,6.25
2023-08-11T15:15:53.958Z,4.43
2023-08-11T15:18:56.750Z,1.37
2023-08-11T15:21:59.649Z,4.43
2023-08-11T15:25:06.058Z,1.83
2023-08-11T15:28:08.618Z,2.50
2023-08-11T15:31:11.576Z,3.05
2023-08-11T15:34:14.151Z,3.15
2023-08-11T15:37:17.036Z,2.83
2023-08-11T15:40:19.631Z,2.20
2023-08-11T15:43:22.520Z,3.10
2023-08-11T15:46:25.202Z,2.25
2023-08-11T15:49:28.012Z,3.10
2023-08-11T15:52:30.605Z,1.85
2023-08-11T15:55:36.854Z,2.83
2023-08-11T15:58:41.234Z,2.20
2023-08-11T16:01:55.910Z,1.73
2023-08-11T16:05:02.874Z,2.45
2023-08-11T16:08:05.839Z,2.42
2023-08-11T16:11:08.775Z,5.05
2023-08-11T16:14:13.203Z,5.40
2023-08-11T16:17:16.047Z,3.62
2023-08-11T16:20:18.703Z,4.70
2023-08-11T16:23:21.567Z,3.17
2023-08-11T16:26:24.198Z,4.12
2023-08-11T16:29:27.150Z,3.00
2023-08-11T16:32:29.808Z,2.12
2023-08-11T16:35:32.728Z,1.70
2023-08-11T16:38:35.460Z,3.25
2023-08-11T16:41:38.434Z,2.90
2023-08-11T16:44:41.114Z,1.80
2023-08-11T16:47:44.441Z,3.70
2023-08-11T16:50:47.374Z,3.65
2023-08-11T16:53:50.295Z,3.08
2023-08-11T16:56:52.824Z,2.75
2023-08-11T16:59:55.718Z,2.83
2023-08-11T17:02:58.469Z,2.53
2023-08-11T17:06:01.338Z,8.75
2023-08-11T17:09:05.304Z,5.15
2023-08-11T17:12:08.965Z,4.30
2023-08-11T17:15:12.019Z,6.80
2023-08-11T17:18:15.024Z,5.28
2023-08-11T17:21:20.238Z,2.65
2023-08-11T17:24:23.160Z,2.83
2023-08-11T17:27:25.798Z,3.47
2023-08-11T17:30:30.901Z,6.37
2023-08-11T17:33:33.558Z,6.37
2023-08-11T17:36:36.514Z,15.02
2023-08-11T17:39:39.088Z,8.73
2023-08-11T17:42:42.345Z,12.10
2023-08-11T17:45:45.337Z,11.35
2023-08-11T17:48:48.200Z,6.20
2023-08-11T17:51:50.939Z,7.00
2023-08-11T17:54:54.222Z,6.43
2023-08-11T17:57:56.804Z,8.20
2023-08-11T18:00:59.652Z,6.10
2023-08-11T18:04:06.291Z,4.75
2023-08-11T18:07:10.607Z,5.60
2023-08-11T18:10:13.471Z,4.18
2023-08-11T18:13:16.340Z,2.97
2023-08-11T18:16:19.334Z,5.15
2023-08-11T18:19:21.978Z,6.03
2023-08-11T18:22:24.834Z,4.37
2023-08-11T18:25:27.572Z,3.42
2023-08-11T18:28:30.492Z,4.05
2023-08-11T18:31:33.095Z,3.87
2023-08-11T18:34:35.986Z,5.90
2023-08-11T18:37:38.721Z,3.97
2023-08-11T18:40:41.614Z,6.43
2023-08-11T18:43:44.334Z,5.00
2023-08-11T18:46:47.349Z,5.12
2023-08-11T18:49:50.004Z,4.85
2023-08-11T18:52:52.925Z,6.35
2023-08-11T18:55:55.563Z,6.05
2023-08-11T18:58:58.422Z,4.95
2023-08-11T19:02:01.077Z,8.85
2023-08-11T19:05:04.125Z,5.18
2023-08-11T19:08:07.573Z,6.15
2023-08-11T19:11:10.563Z,6.80
2023-08-11T19:14:13.690Z,6.68
2023-08-11T19:17:16.540Z,6.28
2023-08-11T19:20:19.201Z,7.53
2023-08-11T19:23:21.954Z,9.88
2023-08-11T19:26:24.422Z,8.32
2023-08-11T19:29:27.329Z,9.52
2023-08-11T19:32:30.430Z,5.85
2023-08-11T19:35:33.268Z,13.57
2023-08-11T19:38:42.291Z,8.50
2023-08-11T19:41:45.151Z,10.88
2023-08-11T19:44:48.024Z,11.50
2023-08-11T19:47:50.877Z,13.35
2023-08-11T19:50:53.556Z,8.25
2023-08-11T19:53:56.324Z,7.18
2023-08-11T19:56:58.932Z,16.62
2023-08-11T20:00:02.045Z,9.88
2023-08-11T20:03:16.695Z,8.90
2023-08-11T20:06:19.607Z,7.18
2023-08-11T20:09:23.477Z,9.05
2023-08-11T20:12:26.458Z,7.28
2023-08-11T20:15:29.184Z,7.55
2023-08-11T20:18:32.134Z,7.65
2023-08-11T20:21:35.085Z,9.38
2023-08-11T20:24:37.992Z,7.82
2023-08-11T20:27:40.549Z,11.25
2023-08-11T20:30:44.543Z,4.18
2023-08-11T20:33:47.022Z,5.85
2023-08-11T20:36:51.068Z,8.30
2023-08-11T20:39:53.560Z,8.60
2023-08-11T20:42:56.416Z,8.93
2023-08-11T20:45:58.972Z,6.72
2023-08-11T20:49:01.880Z,8.38
2023-08-11T20:52:04.531Z,10.20
2023-08-11T20:55:07.660Z,8.23
2023-08-11T20:58:10.445Z,7.03
2023-08-11T21:01:13.374Z,7.30
2023-08-11T21:04:16.087Z,8.52
2023-08-11T21:07:19.038Z,11.18
2023-08-11T21:10:21.599Z,11.40
2023-08-11T21:13:24.952Z,8.73
2023-08-11T21:16:27.762Z,9.40
2023-08-11T21:19:30.644Z,9.45
2023-08-11T21:22:33.364Z,14.57
2023-08-11T21:25:36.418Z,8.60
2023-08-11T21:28:38.982Z,10.35
2023-08-11T21:31:41.926Z,13.82
2023-08-11T21:34:44.559Z,12.65
2023-08-11T21:37:47.365Z,9.90
2023-08-11T21:40:49.936Z,11.88
2023-08-11T21:43:52.807Z,13.27
2023-08-11T21:46:55.475Z,11.20
2023-08-11T21:49:58.324Z,10.98
2023-08-11T21:53:13.396Z,10.27
2023-08-11T21:56:24.279Z,13.88
2023-08-11T21:59:28.600Z,17.23
2023-08-11T22:02:31.500Z,16.27
2023-08-11T22:05:34.477Z,9.98
2023-08-11T22:08:37.124Z,10.82
2023-08-11T22:11:40.047Z,8.27
2023-08-11T22:14:42.588Z,13.48
2023-08-11T22:17:45.420Z,10.93
2023-08-11T22:20:48.203Z,11.07
2023-08-11T22:23:51.043Z,11.05
2023-08-11T22:26:53.662Z,16.95
2023-08-11T22:29:59.854Z,9.77
2023-08-11T22:33:03.052Z,14.55
2023-08-11T22:36:06.228Z,16.40
2023-08-11T22:39:08.807Z,14.25
2023-08-11T22:42:11.599Z,16.48
2023-08-11T22:45:15.250Z,14.15
2023-08-11T22:48:18.212Z,9.35
2023-08-11T22:51:21.143Z,11.02
2023-08-11T22:54:23.945Z,10.07
2023-08-11T22:57:27.081Z,12.37
2023-08-11T23:00:29.982Z,13.93
2023-08-11T23:03:32.619Z,10.35
2023-08-11T23:06:35.374Z,8.43
2023-08-11T23:09:37.864Z,10.50
2023-08-11T23:12:40.786Z,10.38
2023-08-11T23:15:43.305Z,12.75
2023-08-11T23:18:46.360Z,8.48
2023-08-11T23:21:48.984Z,7.93
2023-08-11T23:24:52.175Z,9.38
2023-08-11T23:27:54.726Z,6.90
2023-08-11T23:30:57.856Z,12.10
2023-08-11T23:34:00.388Z,9.00
2023-08-11T23:37:03.236Z,8.50
2023-08-11T23:40:06.314Z,8.45
2023-08-11T23:43:09.183Z,9.40
2023-08-11T23:46:15.273Z,8.10
2023-08-11T23:49:18.449Z,9.18
2023-08-11T23:52:20.908Z,8.75
2023-08-11T23:55:25.915Z,9.50
2023-08-11T23:58:28.560Z,12.50
